x

West Tampa - 112 Nm Wnw Of Tampa, Fl (42036) Wave Buoy

10:50pm - Thu 29th Jan 2015 All times are EST. -5 hours from GMT.

  • Sig Wave height 1.3ft
  • Swell Direction
  • Peak Period 4s
  • Average Period 4s
  • Wind
    9mph, 13mph gusts
  • Sea Temp 68°f
  • Air Temp 65°f
  • Sea Pressure 1024.3mb
  • West Tampa  - 112 Nm Wnw Of Tampa, Fl
  • West Tampa  - 112 Nm Wnw Of Tampa, Fl

More Historic Weather Station data

Upgrade to MSW Pro to gain access to the past 30 days of data for over 8000 Wavebouys and Weather Stations around the globe.

Join Pro

Comparision Forecast

View Surf forecast
   
Thu 01/29 10:50pm 1.3ft 4s 4s 9 13 mph 1024.3mb 68f 65f
9:50pm 1.3ft 4s 4s 9 11 mph 1024.4mb 68f 64f
8:50pm 1.3ft 4s 4s 9 11 mph 1024.7mb 68f 64f
7:50pm 1.6ft 4s 4s 4 9 mph 1025.1mb 68f 63f
6:50pm 1.6ft 4s 4s 4 9 mph 1025.1mb 68f 63f
5:50pm 1.6ft 5s 4s 4 7 mph 1024.9mb 68f 63f
4:50pm 2ft 5s  -  2 4 mph 1024.5mb 68f 63f
3:50pm 2.5ft 5s 4s 9 11 mph 1024.1mb 68f 62f
2:50pm 2.5ft 5s 4s 7 11 mph 1024.2mb 68f 61f
12:50pm 2.5ft 5s 4s 11 13 mph 1025.5mb 68f 60f
11:50am 3ft 6s 4s 9 13 mph 1027.4mb 67f 60f
10:50am 3.5ft 5s 4s 11 16 mph 1027.5mb 67f 60f
9:50am 4ft 5s 4s 13 18 mph 1026.9mb 67f 59f
8:50am 3.5ft 5s 4s 13 18 mph 1027mb 67f 59f
7:50am 3.5ft 5s 4s 16 20 mph 1026mb 67f 58f
6:50am 3ft 4s 4s 16 22 mph 1025.6mb 67f 58f
5:50am 2.5ft 4s 4s 18 22 mph 1024.9mb 67f 58f
4:50am 2.5ft 4s 3s 18 22 mph 1024.4mb 67f 58f
3:50am 2ft 3s 3s 18 25 mph 1024.1mb 67f 58f
2:50am 2ft 4s 3s 18 20 mph 1024.5mb 67f 59f
1:50am 1.6ft 3s 3s 16 20 mph 1024.6mb 67f 58f
12:50am 1.6ft 4s 3s 13 18 mph 1025.1mb 67f 58f
Wed 01/28 11:50pm 2ft 4s 4s 13 18 mph 1025.3mb 67f 58f
10:50pm 2ft 4s 4s 13 16 mph 1025.6mb 68f 57f
9:50pm 2ft 4s 4s 16 18 mph 1025.1mb 68f 57f
8:50pm 2.5ft 4s 4s 13 18 mph 1025mb 68f 56f
7:50pm 2.5ft 4s 4s 11 16 mph 1024.5mb 68f 55f
6:50pm 2.5ft 4s 4s 13 18 mph 1023.9mb 68f 54f
5:50pm 2.5ft 4s 4s 13 18 mph 1023.5mb 68f 55f
4:50pm 2.5ft 4s 4s 11 13 mph 1023.9mb 68f 56f
3:50pm 2.5ft 6s 4s 9 13 mph 1023.4mb 68f 56f
2:50pm 2.5ft 6s 4s 9 13 mph 1023.1mb 68f 56f
1:50pm 3ft 5s 4s 9 11 mph 1023.6mb 68f 56f
12:50pm 3ft 6s 5s 11 13 mph 1024.1mb 68f 57f
11:50am 3ft 6s 4s 9 13 mph 1024.6mb 68f 57f
10:50am 3.5ft 6s 4s 11 16 mph 1024.7mb 68f 58f
9:50am 3.5ft 6s 5s 11 16 mph 1024.1mb 68f 58f
8:50am 4ft 5s 5s 13 18 mph 1023.2mb 68f 59f
7:50am 4ft 7s 5s 13 18 mph 1022.4mb 68f 59f
6:50am 4ft 6s 5s 13 20 mph 1021.7mb 68f 59f
5:50am 4.5ft 7s 5s 16 20 mph 1021.1mb 68f 59f
4:50am 4.5ft 7s 5s 16 20 mph 1020.2mb 68f 60f
3:50am 4.5ft 7s 5s 16 20 mph 1019.8mb 68f 61f
2:50am 4.5ft 7s 5s 16 20 mph 1019.5mb 68f 62f
1:50am 5.5ft 7s 5s 16 20 mph 1019.3mb 68f 63f
12:50am 5.5ft 7s 5s 18 22 mph 1019.2mb 68f 64f
Tue 01/27 11:50pm 5.5ft 7s 5s 20 25 mph 1019mb 68f 64f
10:50pm 6ft 7s 5s 22 27 mph 1018.5mb 68f 65f
9:50pm 6ft 7s 5s 20 25 mph 1018mb 68f 65f
8:50pm 6ft 7s 5s 22 27 mph 1017.2mb 68f 65f
7:50pm 6ft 7s 5s 25 27 mph 1016.5mb 68f 64f
6:50pm 6ft 7s 5s 25 27 mph 1015.8mb 68f 65f
5:50pm 6ft 7s 5s 22 27 mph 1015.3mb 68f 66f
4:50pm 6.5ft 6s 5s 22 27 mph 1014.9mb 68f 66f
3:50pm 6ft 6s 5s 22 27 mph 1014.8mb 68f 66f
2:50pm 6ft 7s 5s 22 27 mph 1015.1mb 68f 66f
1:50pm 6ft 6s 5s 22 29 mph 1015.4mb 68f 66f
12:50pm 5ft 6s 5s 22 29 mph 1016.3mb 68f 66f
11:50am 5ft 6s 5s 22 27 mph 1017mb 68f 65f
10:50am 5ft 6s 5s 20 25 mph 1017.4mb 68f 65f
9:50am 5ft 7s 5s 20 22 mph 1017.5mb 68f 65f
8:50am 5ft 7s 5s 20 25 mph 1017.4mb 68f 64f
7:50am 5ft 7s 5s 13 16 mph 1017.5mb 68f 62f
6:50am 5ft 8s 5s 18 22 mph 1016.8mb 68f 62f
5:50am 5ft 7s 5s 18 22 mph 1016.5mb 68f 61f
4:50am 5.5ft 7s 6s 13 18 mph 1016.5mb 68f 60f
3:50am 5.5ft 8s 5s 16 18 mph 1016.7mb 68f 60f
2:50am 5.5ft 8s 6s 16 20 mph 1016.7mb 68f 59f
1:50am 6ft 8s 6s 16 20 mph 1016.4mb 68f 59f
12:50am 6.5ft 8s 6s 16 20 mph 1016.4mb 68f 59f
Mon 01/26 11:50pm 7ft 8s 6s 20 22 mph 1016.5mb 68f 59f
10:50pm 7ft 9s 5s 22 29 mph 1016.5mb 68f 60f
9:50pm 8ft 9s 6s 25 29 mph 1016mb 68f 60f
8:50pm 8ft 8s 6s 22 29 mph 1015.5mb 68f 60f
7:50pm 8ft 9s 6s 25 31 mph 1014.9mb 68f 60f
6:50pm 8.5ft 9s 6s 25 31 mph 1014.2mb 68f 60f
5:50pm 8ft 7s 6s 22 29 mph 1013.7mb 68f 60f
4:50pm 9ft 9s 6s 25 31 mph 1013.3mb 68f 60f
3:50pm 9ft 9s 6s 25 31 mph 1013mb 68f 60f
2:50pm 9ft 8s 6s 27 31 mph 1012.9mb 68f 60f
1:50pm 9.5ft 9s 6s 29 34 mph 1013.1mb 68f 61f
12:50pm 9.5ft 9s 6s 27 34 mph 1013.8mb 68f 61f
11:50am 10ft 9s 6s 25 31 mph 1014.2mb 68f 62f
10:50am 10ft 9s 7s 27 34 mph 1014.2mb 68f 63f
9:50am 11ft 9s 7s 25 31 mph 1014.1mb 68f 64f
8:50am 11.5ft 9s 7s 22 29 mph 1013.7mb 68f 64f
7:50am 11ft 9s 7s 27 31 mph 1012.9mb 68f 63f
6:50am 12.5ft 9s 7s 29 36 mph 1011.9mb 68f 65f
5:50am 12ft 8s 7s 29 36 mph 1011.2mb 69f 66f